Time;durP1;ratioP1;P1;durP2;ratioP2;P2;SDS_P1;SDS_P2;PMS_P1;PMS_P2;Temp;Humidity;BMP_temperature;BMP_pressure;BME280_temperature;BME280_humidity;BME280_pressure;Samples;Min_cycle;Max_cycle;Signal;HPM_P1;HPM_P2
2022/03/17 00:02:23;;;;;;;49.70;28.70;;;;;;;11.05;61.52;101616.91;5055589;28;20094;-64
2022/03/17 00:04:51;;;;;;;53.28;29.40;;;;;;;10.97;61.80;101611.41;5055761;28;20450;-64
2022/03/17 00:07:19;;;;;;;49.83;28.45;;;;;;;11.06;61.65;101606.16;5056127;28;20045;-64
2022/03/17 00:09:46;;;;;;;51.00;29.13;;;;;;;11.00;62.08;101614.63;5055141;28;20094;-63
2022/03/17 00:12:13;;;;;;;52.42;29.55;;;;;;;11.08;61.54;101613.97;5054858;28;20049;-64
2022/03/17 00:14:40;;;;;;;52.00;28.85;;;;;;;11.02;61.71;101614.50;5055396;28;20053;-64
2022/03/17 00:17:08;;;;;;;47.42;28.38;;;;;;;11.00;61.92;101619.13;5055759;28;20060;-64
2022/03/17 00:19:36;;;;;;;52.13;27.92;;;;;;;11.06;61.75;101613.25;5055662;28;20053;-63
2022/03/17 00:22:06;;;;;;;51.40;28.17;;;;;;;11.07;61.92;101620.25;5052801;28;20444;-64
2022/03/17 00:24:33;;;;;;;50.53;28.73;;;;;;;11.10;61.66;101617.34;5038393;28;20049;-64
2022/03/17 00:27:00;;;;;;;51.88;28.38;;;;;;;11.10;61.54;101612.84;5035818;28;20057;-64
2022/03/17 00:29:27;;;;;;;48.88;29.02;;;;;;;11.01;61.60;101615.50;5035693;28;20050;-64
2022/03/17 00:31:54;;;;;;;44.17;27.27;;;;;;;10.94;61.85;101616.03;5034174;28;20046;-63
2022/03/17 00:34:21;;;;;;;46.20;27.67;;;;;;;10.97;61.74;101620.25;5033848;28;20069;-63
2022/03/17 00:36:48;;;;;;;48.65;27.67;;;;;;;11.07;61.27;101618.44;5043577;28;20037;-63
2022/03/17 00:39:15;;;;;;;46.90;28.25;;;;;;;11.00;61.99;101617.28;5054008;28;20051;-63
2022/03/17 00:41:43;;;;;;;47.15;27.63;;;;;;;11.03;61.74;101610.88;5055174;28;20053;-64
2022/03/17 00:44:11;;;;;;;49.25;28.27;;;;;;;11.01;62.14;101615.50;5055382;28;20041;-64
2022/03/17 00:46:39;;;;;;;48.72;28.58;;;;;;;11.05;61.77;101609.75;5053659;28;20059;-63
2022/03/17 00:49:06;;;;;;;49.58;28.15;;;;;;;11.02;61.61;101609.19;5053891;28;20048;-63
2022/03/17 00:51:34;;;;;;;49.38;27.48;;;;;;;10.92;62.00;101606.53;5054497;28;20051;-64
2022/03/17 00:54:00;;;;;;;46.35;27.63;;;;;;;11.02;61.85;101610.03;5053543;28;20041;-64
2022/03/17 00:56:27;;;;;;;47.90;28.00;;;;;;;10.95;61.84;101600.91;5053458;28;20507;-63
2022/03/17 00:58:54;;;;;;;48.55;28.42;;;;;;;10.90;61.98;101608.47;5053786;28;20041;-63
2022/03/17 01:01:20;;;;;;;47.47;28.02;;;;;;;10.93;62.04;101603.75;5054510;28;20452;-64
2022/03/17 01:03:47;;;;;;;45.70;28.20;;;;;;;10.88;62.07;101605.13;5053696;28;20132;-64
2022/03/17 01:06:14;;;;;;;47.65;28.58;;;;;;;10.86;62.23;101599.09;5054354;28;20091;-64
2022/03/17 01:08:41;;;;;;;49.28;28.70;;;;;;;10.86;62.09;101599.94;5054755;28;20045;-63
2022/03/17 01:11:08;;;;;;;48.38;28.27;;;;;;;10.87;61.56;101598.94;5054712;28;20049;-63
2022/03/17 01:13:35;;;;;;;46.35;28.50;;;;;;;10.92;61.97;101598.56;5036786;28;20041;-63
2022/03/17 01:16:02;;;;;;;47.00;27.92;;;;;;;11.06;61.69;101597.31;5053021;28;20052;-63
2022/03/17 01:18:29;;;;;;;46.40;27.65;;;;;;;11.02;61.26;101590.59;5054449;28;20044;-63
2022/03/17 01:20:57;;;;;;;46.55;27.63;;;;;;;11.06;61.27;101589.34;5053419;28;20052;-64
2022/03/17 01:23:24;;;;;;;47.75;28.30;;;;;;;11.10;61.35;101598.75;5054239;28;20037;-63
2022/03/17 01:25:52;;;;;;;48.00;27.77;;;;;;;10.93;62.17;101592.25;5054097;28;20520;-63
2022/03/17 01:28:19;;;;;;;48.78;29.00;;;;;;;10.92;61.49;101594.09;5054181;28;20048;-64
2022/03/17 01:30:46;;;;;;;48.92;29.33;;;;;;;10.97;61.48;101593.69;5054308;28;20098;-63
2022/03/17 01:33:13;;;;;;;46.72;28.50;;;;;;;10.96;61.63;101597.31;5053100;28;20448;-64
2022/03/17 01:35:39;;;;;;;49.58;28.30;;;;;;;10.87;61.34;101601.59;5053902;28;20044;-63
2022/03/17 01:38:06;;;;;;;49.38;29.05;;;;;;;10.88;61.49;101600.66;5052742;28;20037;-63
2022/03/17 01:40:33;;;;;;;49.45;30.52;;;;;;;10.95;61.38;101598.25;5053792;28;20040;-63
2022/03/17 01:42:59;;;;;;;46.67;27.92;;;;;;;10.95;61.51;101591.16;5054136;28;20070;-63
2022/03/17 01:45:26;;;;;;;48.30;28.17;;;;;;;10.94;61.58;101586.81;5052625;28;20049;-63
2022/03/17 01:47:53;;;;;;;49.65;29.17;;;;;;;10.91;61.57;101587.09;5052894;28;20048;-64
2022/03/17 01:50:21;;;;;;;52.47;30.38;;;;;;;10.94;62.35;101578.84;5053630;28;20063;-63
2022/03/17 01:52:48;;;;;;;46.80;27.73;;;;;;;11.00;61.67;101581.94;5053493;28;20060;-64
2022/03/17 01:55:17;;;;;;;47.58;27.83;;;;;;;10.92;61.80;101579.97;5053536;28;20045;-63
2022/03/17 01:57:45;;;;;;;44.97;28.42;;;;;;;10.92;61.28;101583.47;5053684;28;20045;-63
2022/03/17 02:00:17;;;;;;;51.63;29.23;;;;;;;10.88;61.96;101589.19;5053519;28;20044;-64
2022/03/17 02:02:45;;;;;;;;;;;;;;;11.20;60.60;101590.78;5053950;28;20045;-64
2022/03/17 02:05:12;;;;;;;49.10;27.65;;;;;;;10.93;61.43;101586.94;5053451;28;19947;-63
2022/03/17 02:07:47;;;;;;;47.80;28.73;;;;;;;10.92;61.58;101587.94;5052438;28;20136;-63
2022/03/17 02:10:14;;;;;;;49.05;28.95;;;;;;;10.98;61.56;101591.88;5053616;28;20049;-64
2022/03/17 02:13:12;;;;;;;51.35;29.75;;;;;;;10.93;61.58;101585.16;5036733;28;20053;-63
2022/03/17 02:15:28;;;;;;;47.83;28.65;;;;;;;11.02;61.14;101599.41;5033004;28;20052;-64
2022/03/17 02:17:55;;;;;;;49.22;28.67;;;;;;;10.89;61.77;101588.19;5033406;28;20045;-64
2022/03/17 02:20:24;;;;;;;47.63;29.02;;;;;;;10.87;62.00;101588.34;5033343;28;20068;-63
2022/03/17 02:22:53;;;;;;;46.85;28.50;;;;;;;10.93;61.63;101585.16;5016523;28;20050;-63
2022/03/17 02:25:39;;;;;;;52.30;29.40;;;;;;;10.91;61.67;101578.28;5031899;28;20046;-64
2022/03/17 02:28:07;;;;;;;51.70;29.15;;;;;;;11.01;61.92;101587.13;5033326;28;20045;-64
2022/03/17 02:30:37;;;;;;;50.22;29.02;;;;;;;11.01;61.60;101588.94;5032868;28;20104;-63
2022/03/17 02:33:07;;;;;;;53.58;28.60;;;;;;;10.91;61.84;101584.47;5032904;28;20379;-64
2022/03/17 02:35:37;;;;;;;50.40;29.50;;;;;;;10.90;62.26;101584.59;5044114;28;20079;-63
2022/03/17 02:38:04;;;;;;;52.83;29.55;;;;;;;10.85;62.06;101584.97;5051792;28;20091;-64
2022/03/17 02:40:32;;;;;;;47.60;28.88;;;;;;;10.95;61.85;101585.84;5035327;28;20158;-63
2022/03/17 02:43:00;;;;;;;49.20;30.10;;;;;;;11.02;61.86;101588.78;5053028;28;20408;-64
2022/03/17 02:45:27;;;;;;;48.28;28.92;;;;;;;11.02;61.76;101598.56;5052963;28;20052;-63
2022/03/17 02:47:53;;;;;;;53.58;29.00;;;;;;;10.82;62.11;101579.94;5052902;28;20053;-64
2022/03/17 02:50:20;;;;;;;50.80;29.27;;;;;;;10.90;61.97;101584.59;5052956;28;20044;-64
2022/03/17 02:52:47;;;;;;;49.33;29.27;;;;;;;10.85;61.98;101584.97;5034768;28;20476;-63
2022/03/17 02:55:15;;;;;;;51.35;28.90;;;;;;;10.97;61.84;101580.41;5052928;28;20079;-63
2022/03/17 02:57:45;;;;;;;54.35;29.88;;;;;;;11.00;61.83;101582.78;5019070;28;20049;-64
2022/03/17 03:00:13;;;;;;;52.33;31.05;;;;;;;10.79;62.62;101588.19;5051657;28;20037;-63
2022/03/17 03:02:40;;;;;;;47.05;29.70;;;;;;;10.88;62.29;101587.38;5052798;28;20073;-64
2022/03/17 03:05:09;;;;;;;49.58;30.40;;;;;;;10.93;61.88;101587.81;5052770;28;20049;-63
2022/03/17 03:07:37;;;;;;;56.55;30.73;;;;;;;10.95;62.73;101582.34;5052913;28;20049;-64
2022/03/17 03:10:06;;;;;;;50.67;29.92;;;;;;;10.90;62.10;101584.59;5053013;28;20128;-63
2022/03/17 03:12:33;;;;;;;51.95;31.23;;;;;;;10.75;62.46;101592.06;5051252;28;20045;-63
2022/03/17 03:15:00;;;;;;;54.75;31.50;;;;;;;10.90;62.11;101596.03;5055284;28;20049;-64
2022/03/17 03:17:27;;;;;;;50.53;31.35;;;;;;;10.78;62.29;101593.63;5055613;28;20040;-63
2022/03/17 03:19:54;;;;;;;54.60;31.88;;;;;;;10.87;62.29;101593.63;5056857;28;20041;-64
2022/03/17 03:22:21;;;;;;;53.95;31.45;;;;;;;10.79;62.50;101582.00;5056692;28;20060;-62
2022/03/17 03:24:47;;;;;;;54.92;32.17;;;;;;;10.86;62.06;101593.78;5056281;28;20128;-62
2022/03/17 03:27:14;;;;;;;52.72;31.15;;;;;;;10.73;62.45;101602.84;5056617;28;20508;-62
2022/03/17 03:29:42;;;;;;;55.35;31.00;;;;;;;10.86;62.42;101615.00;5056511;28;20048;-62
2022/03/17 03:32:09;;;;;;;54.00;32.88;;;;;;;10.82;62.25;101616.25;5056646;28;20056;-62
2022/03/17 03:34:36;;;;;;;53.38;31.30;;;;;;;10.74;62.42;101614.28;5055978;28;20040;-62
2022/03/17 03:37:34;;;;;;;57.65;32.72;;;;;;;10.60;63.49;101619.94;5056219;28;20382;-62
2022/03/17 03:39:51;;;;;;;55.05;31.33;;;;;;;10.55;63.33;101631.81;5054970;28;20049;-62
2022/03/17 03:42:18;;;;;;;54.13;32.13;;;;;;;10.75;63.00;101632.72;5055124;28;20053;-63
2022/03/17 03:44:45;;;;;;;52.08;29.50;;;;;;;10.91;62.62;101647.31;5056104;28;20041;-63
2022/03/17 03:47:12;;;;;;;58.58;32.00;;;;;;;10.82;62.45;101645.44;5056033;28;20497;-63
2022/03/17 03:49:40;;;;;;;52.78;31.52;;;;;;;10.76;62.45;101652.97;5055961;28;20132;-63
2022/03/17 03:52:08;;;;;;;54.92;30.80;;;;;;;10.81;63.20;101659.72;5055792;28;20509;-63
2022/03/17 03:54:35;;;;;;;53.05;31.58;;;;;;;10.84;62.40;101664.75;5055773;28;20543;-63
2022/03/17 03:57:02;;;;;;;57.75;33.25;;;;;;;10.76;63.13;101665.41;5056103;28;20045;-63
2022/03/17 03:59:30;;;;;;;59.13;32.22;;;;;;;10.83;63.26;101668.38;5055052;28;20049;-63
2022/03/17 04:02:00;;;;;;;52.90;30.95;;;;;;;10.95;63.46;101673.47;5036303;28;20127;-63
2022/03/17 04:04:28;;;;;;;56.65;33.00;;;;;;;10.91;65.21;101679.16;5035790;28;20073;-63
2022/03/17 04:06:58;;;;;;;53.97;33.03;;;;;;;10.86;65.54;101687.53;5034249;28;20453;-63
2022/03/17 04:09:28;;;;;;;60.65;33.95;;;;;;;10.80;67.23;101688.06;5036202;28;20498;-63
2022/03/17 04:11:57;;;;;;;58.83;33.67;;;;;;;10.84;68.79;101693.94;5034361;28;20045;-63
2022/03/17 04:14:24;;;;;;;63.42;34.50;;;;;;;10.85;69.97;101692.97;5035463;28;20056;-63
2022/03/17 04:16:51;;;;;;;56.92;35.63;;;;;;;10.93;68.03;101696.66;5035531;28;20056;-63
2022/03/17 04:19:18;;;;;;;63.70;35.85;;;;;;;10.82;67.74;101704.69;5018527;28;20049;-63
2022/03/17 04:21:47;;;;;;;61.15;34.28;;;;;;;10.80;68.46;101706.63;5034475;28;20051;-63
2022/03/17 04:24:16;;;;;;;60.75;35.53;;;;;;;10.80;68.36;101717.25;5034986;28;20044;-63
2022/03/17 04:26:43;;;;;;;67.60;36.72;;;;;;;10.72;68.81;101725.03;5035121;28;20049;-63
2022/03/17 04:29:10;;;;;;;65.05;35.80;;;;;;;10.75;68.89;101720.31;5035480;28;20092;-63
2022/03/17 04:31:39;;;;;;;63.65;36.47;;;;;;;10.71;70.16;101726.88;5038263;28;20075;-63
2022/03/17 04:34:07;;;;;;;69.30;37.83;;;;;;;10.55;70.26;101735.28;5056099;28;20045;-63
2022/03/17 04:36:35;;;;;;;69.28;37.63;;;;;;;10.59;72.63;101740.31;5048454;28;20072;-63
2022/03/17 04:39:04;;;;;;;61.90;36.35;;;;;;;10.43;73.67;101743.44;5035547;28;20049;-63
2022/03/17 04:41:30;;;;;;;64.20;36.80;;;;;;;10.44;73.09;101748.59;5035387;28;20053;-63
2022/03/17 04:43:57;;;;;;;79.90;40.10;;;;;;;10.41;74.45;101755.97;5034925;28;20038;-63
2022/03/17 04:46:24;;;;;;;69.55;37.80;;;;;;;10.29;75.25;101757.78;5034959;28;20061;-64
2022/03/17 04:48:51;;;;;;;60.08;34.40;;;;;;;10.36;73.71;101753.69;5055111;28;20133;-64
2022/03/17 04:51:18;;;;;;;70.50;37.70;;;;;;;10.22;76.17;101762.75;5053262;28;20099;-63
2022/03/17 04:53:45;;;;;;;64.78;38.22;;;;;;;10.05;77.49;101766.81;5036822;28;20571;-64
2022/03/17 04:56:16;;;;;;;67.72;37.45;;;;;;;10.08;77.71;101765.72;5054957;28;20044;-64
2022/03/17 04:58:44;;;;;;;72.75;40.20;;;;;;;10.00;78.87;101768.97;5055019;28;20049;-64
2022/03/17 05:01:13;;;;;;;66.45;40.28;;;;;;;10.01;79.71;101777.81;5036997;28;20045;-64
2022/03/17 05:03:40;;;;;;;77.78;40.70;;;;;;;9.86;79.19;101769.25;5053263;28;20491;-63
2022/03/17 05:06:11;;;;;;;79.22;40.95;;;;;;;9.90;81.12;101776.03;5052963;28;20045;-63
2022/03/17 05:08:38;;;;;;;82.53;40.88;;;;;;;9.92;81.51;101788.16;5053531;28;20075;-64
2022/03/17 05:11:07;;;;;;;82.55;42.65;;;;;;;9.84;81.89;101782.66;5053508;28;20049;-64
2022/03/17 05:13:37;;;;;;;79.18;43.40;;;;;;;9.85;82.45;101786.13;5053480;28;20111;-64
2022/03/17 05:16:04;;;;;;;81.80;43.70;;;;;;;9.85;83.05;101797.56;5053062;28;20052;-64
2022/03/17 05:18:32;;;;;;;86.30;45.10;;;;;;;9.83;83.30;101811.94;5054323;28;20041;-64
2022/03/17 05:20:59;;;;;;;80.93;45.30;;;;;;;9.80;83.21;101813.00;5036676;28;20067;-63
2022/03/17 05:23:26;;;;;;;89.32;46.22;;;;;;;9.87;84.05;101819.50;5052938;28;20412;-63
2022/03/17 05:25:53;;;;;;;85.82;46.60;;;;;;;9.90;84.18;101824.56;5054097;28;20041;-64
2022/03/17 05:28:20;;;;;;;81.50;45.83;;;;;;;9.70;83.49;101835.91;5054340;28;20040;-64
2022/03/17 05:30:47;;;;;;;87.68;48.20;;;;;;;9.78;84.86;101831.66;5054009;28;20109;-63
2022/03/17 05:33:15;;;;;;;81.13;44.55;;;;;;;9.76;83.55;101849.50;5054444;28;20131;-63
2022/03/17 05:35:43;;;;;;;82.95;43.70;;;;;;;9.89;82.31;101852.00;5051924;28;20048;-63
2022/03/17 05:38:11;;;;;;;86.35;45.42;;;;;;;9.74;84.39;101856.72;5053955;28;20049;-63
2022/03/17 05:40:38;;;;;;;78.90;43.90;;;;;;;9.62;84.70;101870.94;5053650;28;20140;-64
2022/03/17 05:43:08;;;;;;;84.55;43.15;;;;;;;9.66;85.01;101876.84;5052687;28;20052;-63
2022/03/17 05:45:37;;;;;;;85.88;41.78;;;;;;;9.54;86.49;101886.59;5052292;28;20060;-63
2022/03/17 05:48:05;;;;;;;77.90;39.70;;;;;;;9.53;88.41;101896.38;5019864;28;20560;-63
2022/03/17 05:50:38;;;;;;;81.35;39.78;;;;;;;9.45;89.99;101905.88;5035616;28;20041;-63
2022/03/17 05:53:06;;;;;;;71.03;35.33;;;;;;;9.41;90.67;101895.50;5033488;28;20042;-63
2022/03/17 05:55:33;;;;;;;68.95;31.67;;;;;;;9.31;91.84;101910.41;5033633;28;20045;-63
2022/03/17 05:58:01;;;;;;;54.25;28.90;;;;;;;9.32;92.22;101912.09;5032767;28;20050;-63
2022/03/17 06:00:29;;;;;;;51.95;26.63;;;;;;;9.34;92.08;101918.13;5033577;28;20117;-63
2022/03/17 06:02:57;;;;;;;55.17;28.40;;;;;;;9.37;92.19;101925.00;5033706;28;20049;-63
2022/03/17 06:05:25;;;;;;;53.83;28.27;;;;;;;9.38;92.50;101937.25;5040063;28;20098;-64
2022/03/17 06:07:54;;;;;;;55.58;28.42;;;;;;;9.31;91.99;101941.34;5053003;28;20055;-64
2022/03/17 06:10:24;;;;;;;54.42;29.50;;;;;;;9.23;92.56;101952.50;5053129;28;20053;-64
2022/03/17 06:12:52;;;;;;;54.53;27.33;;;;;;;9.21;91.62;101957.09;5053581;28;20413;-63
2022/03/17 06:15:23;;;;;;;52.33;27.70;;;;;;;9.25;91.73;101965.63;5053195;28;20489;-63
2022/03/17 06:17:52;;;;;;;56.80;29.48;;;;;;;9.06;93.22;101969.66;5053194;28;20119;-63
2022/03/17 06:20:22;;;;;;;51.33;24.13;;;;;;;9.07;93.07;101978.44;5053100;28;20056;-63
2022/03/17 06:22:53;;;;;;;54.45;25.98;;;;;;;8.87;92.88;101987.84;5051899;28;20049;-63
2022/03/17 06:25:22;;;;;;;60.65;30.85;;;;;;;8.76;94.13;101996.56;5052937;28;20072;-63
2022/03/17 06:27:50;;;;;;;70.00;31.33;;;;;;;8.67;93.55;101998.09;5052845;28;20095;-63
2022/03/17 06:30:20;;;;;;;62.90;30.35;;;;;;;8.58;93.64;102001.38;5052077;28;20102;-63
2022/03/17 06:32:48;;;;;;;59.40;28.42;;;;;;;8.46;93.57;102005.78;5051674;28;20501;-63
2022/03/17 06:35:17;;;;;;;59.00;27.70;;;;;;;8.43;94.17;102022.69;5051608;28;20064;-63
2022/03/17 06:37:47;;;;;;;58.63;28.67;;;;;;;8.39;94.35;102030.94;5051329;28;20045;-63
2022/03/17 06:40:15;;;;;;;56.55;28.05;;;;;;;8.41;93.64;102043.06;5051659;28;20045;-63
2022/03/17 06:42:43;;;;;;;60.05;26.45;;;;;;;8.40;93.34;102041.41;5051545;28;20416;-63
2022/03/17 06:45:10;;;;;;;55.22;26.30;;;;;;;8.38;93.38;102050.38;5052306;28;20033;-63
2022/03/17 06:47:38;;;;;;;52.20;26.13;;;;;;;8.48;93.22;102059.41;5018374;28;20049;-63
2022/03/17 06:50:06;;;;;;;58.38;26.98;;;;;;;8.40;93.17;102070.50;5052844;28;20053;-63
2022/03/17 06:52:33;;;;;;;51.20;25.65;;;;;;;8.47;93.69;102073.56;5051267;28;20505;-63
2022/03/17 06:55:00;;;;;;;47.83;24.33;;;;;;;8.47;92.41;102089.44;5051601;28;20052;-63
2022/03/17 06:57:26;;;;;;;41.15;22.20;;;;;;;8.50;92.21;102096.31;5052530;28;20037;-63
2022/03/17 06:59:53;;;;;;;38.60;19.33;;;;;;;8.44;92.18;102100.22;5052352;28;20045;-63
2022/03/17 07:02:20;;;;;;;39.88;19.02;;;;;;;8.31;90.79;102099.34;5052658;28;20056;-63
2022/03/17 07:04:47;;;;;;;38.33;17.38;;;;;;;8.22;89.74;102114.03;5052480;28;20037;-63
2022/03/17 07:07:14;;;;;;;41.58;19.38;;;;;;;8.16;90.77;102119.75;5052585;28;20049;-63
2022/03/17 07:09:41;;;;;;;34.10;17.13;;;;;;;8.14;91.08;102125.16;5052509;28;20528;-63
2022/03/17 07:12:10;;;;;;;41.47;17.95;;;;;;;8.10;90.88;102123.66;5052753;28;20041;-63
2022/03/17 07:14:38;;;;;;;36.60;17.58;;;;;;;8.11;90.72;102141.19;5051131;28;20051;-63
2022/03/17 07:17:05;;;;;;;39.20;19.75;;;;;;;8.10;90.62;102136.88;5052403;28;20513;-63
2022/03/17 07:19:32;;;;;;;39.58;19.45;;;;;;;8.17;90.37;102150.53;5052428;28;20114;-63
2022/03/17 07:21:59;;;;;;;38.65;19.75;;;;;;;8.26;89.37;102160.50;5052495;28;20056;-63
2022/03/17 07:24:26;;;;;;;40.17;20.55;;;;;;;8.32;88.50;102149.50;5051054;28;20041;-63
2022/03/17 07:26:53;;;;;;;42.83;20.08;;;;;;;8.36;87.38;102161.53;5051255;28;20063;-63
2022/03/17 07:29:19;;;;;;;46.55;21.50;;;;;;;8.35;87.37;102172.22;5051365;28;20123;-63
2022/03/17 07:31:46;;;;;;;43.95;21.80;;;;;;;8.40;88.22;102178.91;5051140;28;20065;-63
2022/03/17 07:34:13;;;;;;;39.58;20.60;;;;;;;8.50;87.14;102191.53;5051340;28;20099;-63
2022/03/17 07:36:41;;;;;;;42.85;19.95;;;;;;;8.47;86.67;102189.94;5050881;28;20063;-63
2022/03/17 07:39:08;;;;;;;44.55;22.13;;;;;;;8.44;86.37;102193.63;5048897;28;20182;-63
2022/03/17 07:41:35;;;;;;;40.80;21.05;;;;;;;8.44;84.76;102201.56;5052255;28;20048;-62
2022/03/17 07:44:02;;;;;;;43.17;21.33;;;;;;;8.49;86.94;102200.41;5052507;28;20045;-63
2022/03/17 07:46:49;;;;;;;43.65;20.55;;;;;;;8.45;86.29;102211.19;5051959;28;20041;-63
2022/03/17 07:49:28;;;;;;;36.92;17.13;;;;;;;8.31;83.98;102218.31;5051154;28;20041;-63
2022/03/17 07:51:55;;;;;;;38.88;16.00;;;;;;;8.29;83.27;102222.88;5050258;28;20041;-63
2022/03/17 07:54:22;;;;;;;34.72;16.55;;;;;;;8.32;83.82;102231.44;5052121;28;20619;-63
2022/03/17 07:56:49;;;;;;;34.85;14.60;;;;;;;8.34;82.46;102237.47;5052147;28;20387;-63
2022/03/17 07:59:17;;;;;;;29.08;12.85;;;;;;;8.19;81.60;102242.00;5053359;28;20087;-63
2022/03/17 08:01:44;;;;;;;29.80;12.55;;;;;;;8.26;81.82;102240.66;5055807;28;20049;-63
2022/03/17 08:04:11;;;;;;;30.73;11.35;;;;;;;8.32;81.48;102249.13;5055874;28;20040;-63
2022/03/17 08:06:37;;;;;;;25.98;10.50;;;;;;;8.27;82.50;102254.69;5055394;28;20069;-63
2022/03/17 08:09:04;;;;;;;25.10;10.57;;;;;;;8.25;81.50;102268.03;5055580;28;20045;-63
2022/03/17 08:11:31;;;;;;;24.48;9.70;;;;;;;8.24;81.34;102270.75;5055596;28;20098;-63
2022/03/17 08:13:57;;;;;;;26.70;8.93;;;;;;;8.28;79.35;102267.00;5055283;28;20048;-63
2022/03/17 08:16:24;;;;;;;20.25;7.55;;;;;;;8.25;79.16;102281.25;5054423;28;20318;-63
2022/03/17 08:18:53;;;;;;;24.38;7.63;;;;;;;8.27;80.03;102284.63;5054433;28;20180;-63
2022/03/17 08:21:20;;;;;;;21.88;8.75;;;;;;;8.14;79.97;102278.47;5055658;28;20049;-63
2022/03/17 08:23:47;;;;;;;22.48;8.65;;;;;;;8.21;79.71;102292.97;5055164;28;20084;-62
2022/03/17 08:26:16;;;;;;;21.20;7.45;;;;;;;8.24;79.87;102290.13;5053750;28;20396;-63
2022/03/17 08:28:43;;;;;;;19.70;7.97;;;;;;;8.27;80.50;102297.00;5055297;28;20048;-63
2022/03/17 08:31:12;;;;;;;16.65;6.82;;;;;;;8.34;79.29;102306.22;5055063;28;20040;-63
2022/03/17 08:33:39;;;;;;;19.27;6.18;;;;;;;8.48;76.71;102307.13;5037357;28;20049;-61
2022/03/17 08:37:09;;;;;;;20.85;5.93;;;;;;;8.49;75.92;102317.63;5126818;27;20108;-62
2022/03/17 08:39:38;;;;;;;16.67;4.82;;;;;;;8.33;75.23;102322.19;5128984;28;20122;-59
2022/03/17 08:42:05;;;;;;;11.15;3.60;;;;;;;8.25;75.37;102328.81;5129916;28;20063;-61
2022/03/17 08:44:31;;;;;;;13.93;3.95;;;;;;;8.27;75.45;102331.38;5110398;27;20050;-60
2022/03/17 08:49:45;;;;;;;10.10;3.63;;;;;;;8.42;73.96;102348.06;5110335;28;20047;-59
2022/03/17 08:52:12;;;;;;;18.25;5.40;;;;;;;8.38;73.72;102344.75;5107701;28;20109;-59
2022/03/17 08:54:38;;;;;;;17.63;4.82;;;;;;;8.40;74.02;102347.28;5110219;28;20048;-59
2022/03/17 08:57:05;;;;;;;14.52;4.43;;;;;;;8.41;74.93;102354.28;5109787;28;20036;-61
2022/03/17 08:59:35;;;;;;;15.30;4.47;;;;;;;8.48;74.08;102354.75;5110577;28;20126;-59
2022/03/17 09:02:05;;;;;;;11.27;3.80;;;;;;;8.50;74.65;102366.09;5109797;28;20058;-59
2022/03/17 09:04:33;;;;;;;11.23;4.55;;;;;;;8.55;74.47;102367.50;5110066;28;20040;-59
2022/03/17 09:07:02;;;;;;;13.25;4.45;;;;;;;8.59;73.98;102374.25;5109182;28;20048;-60
2022/03/17 09:09:32;;;;;;;15.75;4.53;;;;;;;8.70;74.92;102375.38;5110309;28;20039;-59
2022/03/17 09:12:04;;;;;;;16.45;4.40;;;;;;;8.68;74.74;102374.59;5107396;28;20039;-59
2022/03/17 09:14:34;;;;;;;20.23;7.90;;;;;;;8.53;73.66;102395.84;5108646;28;20122;-63
2022/03/17 09:17:01;;;;;;;29.38;10.52;;;;;;;8.70;74.77;102391.22;5109748;28;20068;-61
2022/03/17 09:19:29;;;;;;;22.33;6.47;;;;;;;8.80;73.27;102402.88;5110397;28;20055;-61
2022/03/17 09:21:56;;;;;;;14.68;4.47;;;;;;;8.88;72.20;102402.38;5109990;28;20048;-63
2022/03/17 09:24:23;;;;;;;14.45;4.25;;;;;;;8.80;72.63;102398.47;5108440;28;20407;-62
2022/03/17 09:26:50;;;;;;;12.45;3.70;;;;;;;8.72;73.48;102411.34;5106836;28;20408;-62
2022/03/17 09:29:17;;;;;;;10.43;3.25;;;;;;;8.61;72.61;102405.91;5107828;28;20442;-62
2022/03/17 09:31:44;;;;;;;12.75;3.30;;;;;;;8.75;72.21;102413.78;5109608;28;20085;-60
2022/03/17 09:34:11;;;;;;;10.77;3.30;;;;;;;8.78;72.81;102415.38;5109051;28;20044;-61
2022/03/17 09:36:37;;;;;;;13.02;3.90;;;;;;;8.78;72.54;102416.22;5107830;28;20097;-61
2022/03/17 09:41:52;;;;;;;12.27;3.85;;;;;;;8.62;72.50;102418.19;5108370;28;20401;-60
2022/03/17 09:44:19;;;;;;;15.85;3.55;;;;;;;8.73;73.76;102420.13;5109565;28;20040;-61
2022/03/17 09:46:47;;;;;;;11.43;3.30;;;;;;;8.77;72.70;102427.75;5105578;28;20396;-61
2022/03/17 09:49:14;;;;;;;9.02;3.20;;;;;;;8.78;73.59;102425.97;5095304;28;20051;-61
2022/03/17 09:51:42;;;;;;;13.98;3.30;;;;;;;8.92;71.68;102430.34;5095930;28;20062;-61
2022/03/17 09:54:10;;;;;;;16.35;3.08;;;;;;;8.95;71.51;102436.28;5091329;28;20501;-61
2022/03/17 09:56:37;;;;;;;13.20;3.67;;;;;;;8.98;71.32;102440.53;5095131;28;20060;-60
2022/03/17 09:59:06;;;;;;;12.55;2.80;;;;;;;8.94;70.10;102447.81;5076127;28;20109;-60
2022/03/17 10:01:35;;;;;;;15.10;3.00;;;;;;;8.94;69.75;102453.09;5075467;28;20040;-61
2022/03/17 10:04:03;;;;;;;12.38;2.65;;;;;;;9.13;69.54;102447.44;5093869;28;20048;-61
2022/03/17 10:06:30;;;;;;;12.43;2.58;;;;;;;9.09;70.39;102451.22;5099418;28;20573;-61
2022/03/17 10:08:58;;;;;;;13.27;2.40;;;;;;;8.98;68.91;102454.59;5115585;28;20084;-61
2022/03/17 10:11:30;;;;;;;13.32;2.05;;;;;;;9.22;67.26;102470.66;5094372;28;20082;-62
2022/03/17 10:13:59;;;;;;;9.15;2.25;;;;;;;9.09;68.59;102474.22;5095546;28;20044;-61
2022/03/17 10:16:28;;;;;;;17.00;2.97;;;;;;;9.01;68.11;102470.28;5098258;28;20447;-61
2022/03/17 10:19:00;;;;;;;16.25;3.20;;;;;;;8.86;68.93;102473.94;5095336;28;20492;-61
2022/03/17 10:21:28;;;;;;;14.43;2.70;;;;;;;8.60;69.99;102478.28;5091163;28;20065;-61
2022/03/17 10:24:06;;;;;;;17.20;2.97;;;;;;;8.78;69.86;102484.19;5094291;28;20059;-61
2022/03/17 10:26:43;;;;;;;14.23;2.42;;;;;;;8.93;69.44;102504.38;5094144;28;20072;-61
2022/03/17 10:29:20;;;;;;;17.08;2.70;;;;;;;8.90;69.16;102493.13;5074603;28;20451;-61
2022/03/17 10:34:33;;;;;;;13.48;2.60;;;;;;;8.89;68.97;102509.94;5110688;27;20396;-60
2022/03/17 10:37:16;;;;;;;17.27;2.75;;;;;;;8.86;68.47;102520.72;5110356;28;20529;-62
2022/03/17 10:39:46;;;;;;;13.38;2.70;;;;;;;8.88;68.85;102516.16;5109885;28;20142;-60
2022/03/17 10:42:26;;;;;;;25.17;3.08;;;;;;;8.83;68.81;102517.31;5109192;28;20048;-61
2022/03/17 10:44:56;;;;;;;16.63;2.90;;;;;;;8.93;68.70;102525.53;5110640;28;20523;-61
2022/03/17 10:47:25;;;;;;;12.02;2.50;;;;;;;9.02;68.19;102532.00;5110489;28;20047;-61
2022/03/17 10:50:10;;;;;;;12.70;2.50;;;;;;;9.08;67.33;102534.28;5109456;28;20048;-60
2022/03/17 10:52:52;;;;;;;13.18;2.40;;;;;;;9.18;67.68;102542.44;5117394;28;20039;-60
2022/03/17 10:55:22;;;;;;;12.48;2.60;;;;;;;9.23;67.41;102535.06;5131102;27;20046;-60
2022/03/17 10:57:51;;;;;;;17.73;2.70;;;;;;;9.23;67.63;102545.66;5130800;27;20054;-61
2022/03/17 11:00:21;;;;;;;15.27;3.22;;;;;;;9.14;67.94;102541.81;5130997;27;20053;-60
2022/03/17 11:02:49;;;;;;;12.48;2.85;;;;;;;9.03;68.35;102547.78;5115940;27;20048;-60
2022/03/17 11:05:18;;;;;;;12.00;3.00;;;;;;;9.23;68.66;102548.28;5110226;28;20044;-60
2022/03/17 11:07:45;;;;;;;19.38;3.22;;;;;;;9.39;67.23;102548.13;5108552;28;20105;-60
2022/03/17 11:10:15;;;;;;;15.70;2.90;;;;;;;9.50;66.94;102550.06;5109949;28;20500;-60
2022/03/17 11:12:43;;;;;;;16.90;3.50;;;;;;;9.41;66.95;102556.81;5109787;28;20055;-60
2022/03/17 11:15:10;;;;;;;20.58;3.10;;;;;;;9.47;66.82;102558.22;5101101;28;20093;-60
2022/03/17 11:17:41;;;;;;;18.55;3.00;;;;;;;9.56;65.94;102560.25;5106201;28;20040;-61
2022/03/17 11:20:11;;;;;;;15.90;3.20;;;;;;;9.41;66.22;102565.63;5100901;28;20098;-61
2022/03/17 11:22:39;;;;;;;19.40;3.30;;;;;;;9.54;66.03;102564.81;5108750;28;20040;-60
2022/03/17 11:25:25;;;;;;;13.38;3.58;;;;;;;9.56;66.06;102566.38;5112256;28;20042;-60
2022/03/17 11:27:58;;;;;;;12.70;3.33;;;;;;;9.52;66.79;102572.00;5109123;28;20075;-60
2022/03/17 11:30:43;;;;;;;13.82;3.42;;;;;;;9.77;66.24;102579.16;5110076;28;20048;-60
2022/03/17 11:33:33;;;;;;;19.30;3.70;;;;;;;9.41;66.30;102575.38;5111596;28;20042;-60